sensor_id;sensor_type;location;lat;lon;timestamp;pressure;altitude;pressure_sealevel;temperature;humidity
61484;BME280;47349;55.640;37.692;2023-04-01T00:01:41;97858.63;;;1.61;100.00
61484;BME280;47349;55.640;37.692;2023-04-01T00:04:09;97847.72;;;1.56;100.00
61484;BME280;47349;55.640;37.692;2023-04-01T00:06:50;97842.13;;;1.51;100.00
61484;BME280;47349;55.640;37.692;2023-04-01T00:09:20;97820.66;;;1.38;100.00
61484;BME280;47349;55.640;37.692;2023-04-01T00:12:01;97851.00;;;1.58;100.00
61484;BME280;47349;55.640;37.692;2023-04-01T00:14:42;97838.31;;;1.45;100.00
61484;BME280;47349;55.640;37.692;2023-04-01T00:17:24;97844.41;;;1.46;100.00
61484;BME280;47349;55.640;37.692;2023-04-01T00:20:07;97841.13;;;1.36;100.00
61484;BME280;47349;55.640;37.692;2023-04-01T00:22:50;97855.94;;;1.45;100.00
61484;BME280;47349;55.640;37.692;2023-04-01T00:25:31;97820.78;;;1.28;100.00
61484;BME280;47349;55.640;37.692;2023-04-01T00:28:13;97849.53;;;1.47;100.00
61484;BME280;47349;55.640;37.692;2023-04-01T00:30:55;97792.75;;;1.27;100.00
61484;BME280;47349;55.640;37.692;2023-04-01T00:33:37;97833.69;;;1.64;100.00
61484;BME280;47349;55.640;37.692;2023-04-01T00:36:19;97842.59;;;1.63;100.00
61484;BME280;47349;55.640;37.692;2023-04-01T00:39:02;97837.34;;;1.71;100.00
61484;BME280;47349;55.640;37.692;2023-04-01T00:41:43;97835.69;;;1.70;100.00
61484;BME280;47349;55.640;37.692;2023-04-01T00:44:27;97834.00;;;1.69;100.00
61484;BME280;47349;55.640;37.692;2023-04-01T00:47:09;97806.63;;;1.45;100.00
61484;BME280;47349;55.640;37.692;2023-04-01T00:49:51;97814.22;;;1.48;100.00
61484;BME280;47349;55.640;37.692;2023-04-01T00:52:34;97840.31;;;1.60;100.00
61484;BME280;47349;55.640;37.692;2023-04-01T00:55:05;97828.75;;;1.52;100.00
61484;BME280;47349;55.640;37.692;2023-04-01T00:57:50;97834.03;;;1.52;100.00
61484;BME280;47349;55.640;37.692;2023-04-01T01:00:34;97825.44;;;1.50;100.00
61484;BME280;47349;55.640;37.692;2023-04-01T01:03:05;97835.34;;;1.57;100.00
61484;BME280;47349;55.640;37.692;2023-04-01T01:09:16;97843.59;;;1.62;100.00
61484;BME280;47349;55.640;37.692;2023-04-01T01:12:16;97839.13;;;1.62;100.00
61484;BME280;47349;55.640;37.692;2023-04-01T01:15:25;97842.78;;;1.69;100.00
61484;BME280;47349;55.640;37.692;2023-04-01T01:27:20;97825.75;;;1.23;100.00
61484;BME280;47349;55.640;37.692;2023-04-01T01:35:49;97839.91;;;1.30;100.00
61484;BME280;47349;55.640;37.692;2023-04-01T01:38:34;97848.03;;;1.37;100.00
61484;BME280;47349;55.640;37.692;2023-04-01T01:41:07;97842.06;;;1.35;100.00
61484;BME280;47349;55.640;37.692;2023-04-01T01:43:50;97837.47;;;1.28;100.00
61484;BME280;47349;55.640;37.692;2023-04-01T01:46:26;97843.25;;;1.32;100.00
61484;BME280;47349;55.640;37.692;2023-04-01T01:49:10;97844.03;;;1.24;100.00
61484;BME280;47349;55.640;37.692;2023-04-01T01:51:52;97843.56;;;1.29;100.00
61484;BME280;47349;55.640;37.692;2023-04-01T01:54:21;97838.28;;;1.29;100.00
61484;BME280;47349;55.640;37.692;2023-04-01T01:57:08;97830.84;;;1.24;100.00
61484;BME280;47349;55.640;37.692;2023-04-01T01:59:56;97841.25;;;1.34;100.00
61484;BME280;47349;55.640;37.692;2023-04-01T02:02:42;97847.53;;;1.33;100.00
61484;BME280;47349;55.640;37.692;2023-04-01T02:05:25;97830.50;;;1.19;100.00
61484;BME280;47349;55.640;37.692;2023-04-01T02:08:31;97848.69;;;1.31;100.00
61484;BME280;47349;55.640;37.692;2023-04-01T02:11:17;97857.09;;;1.34;100.00
61484;BME280;47349;55.640;37.692;2023-04-01T02:14:02;97848.19;;;1.27;100.00
61484;BME280;47349;55.640;37.692;2023-04-01T02:16:55;97852.78;;;1.25;100.00
61484;BME280;47349;55.640;37.692;2023-04-01T02:19:34;97858.88;;;1.25;100.00
61484;BME280;47349;55.640;37.692;2023-04-01T02:22:11;97859.56;;;1.27;100.00
61484;BME280;47349;55.640;37.692;2023-04-01T02:24:58;97852.78;;;1.17;100.00
61484;BME280;47349;55.640;37.692;2023-04-01T02:27:30;97854.25;;;1.19;100.00
61484;BME280;47349;55.640;37.692;2023-04-01T02:30:10;97861.53;;;1.34;100.00
61484;BME280;47349;55.640;37.692;2023-04-01T02:32:40;97856.91;;;1.27;100.00
61484;BME280;47349;55.640;37.692;2023-04-01T02:35:22;97859.38;;;1.29;100.00
61484;BME280;47349;55.640;37.692;2023-04-01T02:38:04;97864.88;;;1.36;100.00
61484;BME280;47349;55.640;37.692;2023-04-01T02:40:46;97867.16;;;1.39;100.00
61484;BME280;47349;55.640;37.692;2023-04-01T02:43:28;97868.31;;;1.36;100.00
61484;BME280;47349;55.640;37.692;2023-04-01T02:46:11;97854.94;;;1.21;100.00
61484;BME280;47349;55.640;37.692;2023-04-01T02:48:41;97856.25;;;1.25;100.00
61484;BME280;47349;55.640;37.692;2023-04-01T02:51:22;97862.38;;;1.34;100.00
61484;BME280;47349;55.640;37.692;2023-04-01T02:53:51;97839.59;;;1.25;100.00
61484;BME280;47349;55.640;37.692;2023-04-01T02:56:32;97866.31;;;1.30;100.00
61484;BME280;47349;55.640;37.692;2023-04-01T02:59:02;97863.03;;;1.44;100.00
61484;BME280;47349;55.640;37.692;2023-04-01T03:01:29;97873.28;;;1.47;100.00
61484;BME280;47349;55.640;37.692;2023-04-01T03:03:58;97856.63;;;1.47;100.00
61484;BME280;47349;55.640;37.692;2023-04-01T03:06:39;97853.66;;;1.42;100.00
61484;BME280;47349;55.640;37.692;2023-04-01T03:09:11;97865.69;;;1.44;100.00
61484;BME280;47349;55.640;37.692;2023-04-01T03:11:47;97872.13;;;1.42;100.00
61484;BME280;47349;55.640;37.692;2023-04-01T03:14:31;97871.44;;;1.40;100.00
61484;BME280;47349;55.640;37.692;2023-04-01T03:17:00;97879.72;;;1.37;100.00
61484;BME280;47349;55.640;37.692;2023-04-01T03:19:36;97885.63;;;1.31;100.00
61484;BME280;47349;55.640;37.692;2023-04-01T03:22:17;97852.09;;;1.15;100.00
61484;BME280;47349;55.640;37.692;2023-04-01T03:25:04;97876.91;;;1.38;100.00
61484;BME280;47349;55.640;37.692;2023-04-01T03:27:34;97859.72;;;1.26;100.00
61484;BME280;47349;55.640;37.692;2023-04-01T03:30:05;97880.88;;;1.42;100.00
61484;BME280;47349;55.640;37.692;2023-04-01T03:32:46;97887.44;;;1.38;100.00
61484;BME280;47349;55.640;37.692;2023-04-01T03:35:18;97892.91;;;1.45;100.00
61484;BME280;47349;55.640;37.692;2023-04-01T03:37:59;97864.66;;;1.29;100.00
61484;BME280;47349;55.640;37.692;2023-04-01T03:40:42;97888.44;;;1.37;100.00
61484;BME280;47349;55.640;37.692;2023-04-01T03:43:15;97877.22;;;1.43;100.00
61484;BME280;47349;55.640;37.692;2023-04-01T03:45:45;97878.19;;;1.34;100.00
61484;BME280;47349;55.640;37.692;2023-04-01T03:48:15;97898.88;;;1.47;100.00
61484;BME280;47349;55.640;37.692;2023-04-01T03:50:48;97897.03;;;1.39;100.00
61484;BME280;47349;55.640;37.692;2023-04-01T03:53:29;97907.25;;;1.42;100.00
61484;BME280;47349;55.640;37.692;2023-04-01T03:56:11;97884.78;;;1.22;100.00
61484;BME280;47349;55.640;37.692;2023-04-01T03:58:52;97911.53;;;1.35;100.00
61484;BME280;47349;55.640;37.692;2023-04-01T04:01:21;97910.38;;;1.38;100.00
61484;BME280;47349;55.640;37.692;2023-04-01T04:03:55;97916.31;;;1.40;100.00
61484;BME280;47349;55.640;37.692;2023-04-01T04:06:24;97909.25;;;1.40;100.00
61484;BME280;47349;55.640;37.692;2023-04-01T04:09:05;97907.78;;;1.46;100.00
61484;BME280;47349;55.640;37.692;2023-04-01T04:11:47;97914.19;;;1.43;100.00
61484;BME280;47349;55.640;37.692;2023-04-01T04:14:29;97927.06;;;1.46;100.00
61484;BME280;47349;55.640;37.692;2023-04-01T04:16:58;97931.69;;;1.44;100.00
61484;BME280;47349;55.640;37.692;2023-04-01T04:19:39;97915.50;;;1.31;100.00
61484;BME280;47349;55.640;37.692;2023-04-01T04:22:21;97933.34;;;1.45;100.00
61484;BME280;47349;55.640;37.692;2023-04-01T04:25:06;97933.66;;;1.42;100.00
61484;BME280;47349;55.640;37.692;2023-04-01T04:27:36;97939.75;;;1.43;100.00
61484;BME280;47349;55.640;37.692;2023-04-01T04:30:09;97927.03;;;1.38;100.00
61484;BME280;47349;55.640;37.692;2023-04-01T04:32:39;97932.28;;;1.30;100.00
61484;BME280;47349;55.640;37.692;2023-04-01T04:35:23;97935.31;;;1.43;100.00
61484;BME280;47349;55.640;37.692;2023-04-01T04:37:50;97933.84;;;1.49;100.00
61484;BME280;47349;55.640;37.692;2023-04-01T04:40:18;97924.75;;;1.43;100.00
61484;BME280;47349;55.640;37.692;2023-04-01T04:42:48;97941.81;;;1.65;100.00
61484;BME280;47349;55.640;37.692;2023-04-01T04:45:16;97949.91;;;1.72;100.00
61484;BME280;47349;55.640;37.692;2023-04-01T04:47:53;97939.16;;;1.65;100.00
61484;BME280;47349;55.640;37.692;2023-04-01T04:50:24;97952.84;;;1.61;100.00
61484;BME280;47349;55.640;37.692;2023-04-01T04:52:52;97948.41;;;1.61;100.00
61484;BME280;47349;55.640;37.692;2023-04-01T04:55:20;97962.44;;;1.70;100.00
61484;BME280;47349;55.640;37.692;2023-04-01T04:57:57;97968.03;;;1.67;100.00
61484;BME280;47349;55.640;37.692;2023-04-01T05:00:24;97940.97;;;1.57;100.00
61484;BME280;47349;55.640;37.692;2023-04-01T05:02:56;97961.94;;;1.66;100.00
61484;BME280;47349;55.640;37.692;2023-04-01T05:05:24;97967.38;;;1.73;100.00
61484;BME280;47349;55.640;37.692;2023-04-01T05:08:06;97956.16;;;1.63;100.00
61484;BME280;47349;55.640;37.692;2023-04-01T05:10:34;97974.81;;;1.77;100.00
61484;BME280;47349;55.640;37.692;2023-04-01T05:13:03;97981.13;;;1.85;100.00
61484;BME280;47349;55.640;37.692;2023-04-01T05:15:39;97973.22;;;1.85;100.00
61484;BME280;47349;55.640;37.692;2023-04-01T05:18:29;97951.75;;;1.79;100.00
61484;BME280;47349;55.640;37.692;2023-04-01T05:21:01;97954.06;;;1.91;100.00
61484;BME280;47349;55.640;37.692;2023-04-01T05:23:45;97952.25;;;1.99;100.00
61484;BME280;47349;55.640;37.692;2023-04-01T05:26:48;97941.03;;;2.05;100.00
61484;BME280;47349;55.640;37.692;2023-04-01T05:29:34;97936.38;;;2.08;100.00
61484;BME280;47349;55.640;37.692;2023-04-01T05:32:06;97982.00;;;2.34;100.00
61484;BME280;47349;55.640;37.692;2023-04-01T05:34:52;97938.38;;;2.14;100.00
61484;BME280;47349;55.640;37.692;2023-04-01T05:37:35;97988.91;;;2.51;100.00
61484;BME280;47349;55.640;37.692;2023-04-01T05:40:21;97980.19;;;2.43;100.00
61484;BME280;47349;55.640;37.692;2023-04-01T05:43:02;97961.66;;;2.26;100.00
61484;BME280;47349;55.640;37.692;2023-04-01T05:45:48;97949.13;;;2.20;100.00
61484;BME280;47349;55.640;37.692;2023-04-01T05:48:51;97971.75;;;2.31;100.00
61484;BME280;47349;55.640;37.692;2023-04-01T05:51:25;97957.88;;;2.29;100.00
61484;BME280;47349;55.640;37.692;2023-04-01T05:54:09;97997.88;;;2.42;100.00
61484;BME280;47349;55.640;37.692;2023-04-01T05:56:50;97990.91;;;2.41;100.00
61484;BME280;47349;55.640;37.692;2023-04-01T05:59:31;98010.06;;;2.51;100.00
61484;BME280;47349;55.640;37.692;2023-04-01T06:02:12;97997.53;;;2.53;100.00
61484;BME280;47349;55.640;37.692;2023-04-01T06:04:43;98008.25;;;2.68;100.00
61484;BME280;47349;55.640;37.692;2023-04-01T06:07:26;97984.94;;;2.55;100.00
61484;BME280;47349;55.640;37.692;2023-04-01T06:10:18;97998.19;;;2.72;100.00
61484;BME280;47349;55.640;37.692;2023-04-01T06:13:18;98007.41;;;2.84;100.00
61484;BME280;47349;55.640;37.692;2023-04-01T06:19:39;98006.22;;;3.03;100.00
61484;BME280;47349;55.640;37.692;2023-04-01T06:26:17;98018.44;;;3.12;100.00
61484;BME280;47349;55.640;37.692;2023-04-01T06:33:08;98021.41;;;3.09;100.00
61484;BME280;47349;55.640;37.692;2023-04-01T06:54:58;98030.53;;;3.06;100.00
61484;BME280;47349;55.640;37.692;2023-04-01T06:59:27;98031.66;;;3.04;100.00
61484;BME280;47349;55.640;37.692;2023-04-01T07:20:40;98046.03;;;4.04;100.00
61484;BME280;47349;55.640;37.692;2023-04-01T07:32:03;98047.91;;;4.27;97.82
61484;BME280;47349;55.640;37.692;2023-04-01T07:41:37;98062.47;;;4.31;97.23
61484;BME280;47349;55.640;37.692;2023-04-01T07:50:26;98063.25;;;4.54;95.19
61484;BME280;47349;55.640;37.692;2023-04-01T07:55:45;98050.47;;;4.58;95.68
61484;BME280;47349;55.640;37.692;2023-04-01T08:00:58;98038.97;;;4.88;94.15
61484;BME280;47349;55.640;37.692;2023-04-01T08:21:01;98038.47;;;5.37;90.70
61484;BME280;47349;55.640;37.692;2023-04-01T08:24:18;98065.66;;;5.54;88.65
61484;BME280;47349;55.640;37.692;2023-04-01T08:27:11;98072.06;;;5.45;88.75
61484;BME280;47349;55.640;37.692;2023-04-01T08:30:18;98063.19;;;5.38;87.52
61484;BME280;47349;55.640;37.692;2023-04-01T08:33:30;98073.09;;;5.59;88.57
61484;BME280;47349;55.640;37.692;2023-04-01T08:36:20;98065.59;;;5.62;88.73
61484;BME280;47349;55.640;37.692;2023-04-01T08:40:12;98096.84;;;5.90;88.73
61484;BME280;47349;55.640;37.692;2023-04-01T08:44:04;98096.84;;;5.90;85.42
61484;BME280;47349;55.640;37.692;2023-04-01T09:03:52;98110.66;;;6.51;83.61
61484;BME280;47349;55.640;37.692;2023-04-01T09:52:32;98156.06;;;6.86;76.48
61484;BME280;47349;55.640;37.692;2023-04-01T11:05:58;98185.75;;;8.03;66.39
61484;BME280;47349;55.640;37.692;2023-04-01T11:09:15;98189.28;;;8.17;63.40
61484;BME280;47349;55.640;37.692;2023-04-01T11:18:23;98174.50;;;8.49;65.05
61484;BME280;47349;55.640;37.692;2023-04-01T11:24:11;98186.72;;;8.71;64.56
61484;BME280;47349;55.640;37.692;2023-04-01T11:34:57;98182.44;;;8.90;60.80
61484;BME280;47349;55.640;37.692;2023-04-01T11:44:29;98203.22;;;9.01;63.29
61484;BME280;47349;55.640;37.692;2023-04-01T11:47:33;98175.22;;;8.84;61.19
61484;BME280;47349;55.640;37.692;2023-04-01T12:14:40;98189.25;;;9.06;60.52
61484;BME280;47349;55.640;37.692;2023-04-01T12:35:44;98192.78;;;9.26;59.14
61484;BME280;47349;55.640;37.692;2023-04-01T12:38:54;98205.13;;;9.41;59.54
61484;BME280;47349;55.640;37.692;2023-04-01T14:35:52;98297.81;;;7.39;75.79
61484;BME280;47349;55.640;37.692;2023-04-01T14:38:42;98283.63;;;7.32;75.91
61484;BME280;47349;55.640;37.692;2023-04-01T14:41:35;98286.84;;;7.27;76.33
61484;BME280;47349;55.640;37.692;2023-04-01T14:47:47;98307.03;;;7.36;77.41
61484;BME280;47349;55.640;37.692;2023-04-01T15:24:07;98325.81;;;6.77;85.99
61484;BME280;47349;55.640;37.692;2023-04-01T15:27:24;98331.56;;;6.66;86.66
61484;BME280;47349;55.640;37.692;2023-04-01T15:51:18;98382.06;;;7.04;87.30
61484;BME280;47349;55.640;37.692;2023-04-01T15:57:24;98389.59;;;7.00;87.23
61484;BME280;47349;55.640;37.692;2023-04-01T16:00:31;98390.00;;;6.97;87.48
61484;BME280;47349;55.640;37.692;2023-04-01T16:15:43;98383.66;;;6.68;87.75
61484;BME280;47349;55.640;37.692;2023-04-01T16:18:27;98417.06;;;6.86;88.05
61484;BME280;47349;55.640;37.692;2023-04-01T16:21:24;98409.25;;;6.55;89.41
61484;BME280;47349;55.640;37.692;2023-04-01T16:24:10;98402.81;;;6.49;90.24
61484;BME280;47349;55.640;37.692;2023-04-01T16:26:52;98391.31;;;6.34;90.81
61484;BME280;47349;55.640;37.692;2023-04-01T16:32:41;98428.63;;;6.63;91.08
61484;BME280;47349;55.640;37.692;2023-04-01T16:35:42;98433.75;;;6.65;92.27
61484;BME280;47349;55.640;37.692;2023-04-01T16:38:32;98407.19;;;6.42;92.32
61484;BME280;47349;55.640;37.692;2023-04-01T16:41:11;98434.59;;;6.65;92.87
61484;BME280;47349;55.640;37.692;2023-04-01T16:44:27;98441.66;;;6.58;93.37
61484;BME280;47349;55.640;37.692;2023-04-01T16:47:40;98407.28;;;6.34;93.68
61484;BME280;47349;55.640;37.692;2023-04-01T16:50:30;98420.31;;;6.29;94.85
61484;BME280;47349;55.640;37.692;2023-04-01T16:53:47;98443.03;;;6.54;95.18
61484;BME280;47349;55.640;37.692;2023-04-01T16:56:36;98408.50;;;6.23;95.36
61484;BME280;47349;55.640;37.692;2023-04-01T16:59:29;98437.00;;;6.37;95.80
61484;BME280;47349;55.640;37.692;2023-04-01T17:02:12;98404.59;;;6.19;95.88
61484;BME280;47349;55.640;37.692;2023-04-01T17:05:11;98449.41;;;6.45;96.49
61484;BME280;47349;55.640;37.692;2023-04-01T17:22:13;98442.66;;;6.20;95.52
61484;BME280;47349;55.640;37.692;2023-04-01T17:25:25;98463.59;;;6.37;95.88
61484;BME280;47349;55.640;37.692;2023-04-01T17:40:49;98462.50;;;6.32;95.98
61484;BME280;47349;55.640;37.692;2023-04-01T17:49:19;98478.13;;;6.35;95.90
61484;BME280;47349;55.640;37.692;2023-04-01T17:52:03;98484.44;;;6.34;96.12
61484;BME280;47349;55.640;37.692;2023-04-01T17:54:54;98456.31;;;6.16;96.21
61484;BME280;47349;55.640;37.692;2023-04-01T18:04:17;98481.72;;;6.19;97.36
61484;BME280;47349;55.640;37.692;2023-04-01T18:07:09;98477.53;;;6.25;97.47
61484;BME280;47349;55.640;37.692;2023-04-01T18:13:21;98479.53;;;6.23;97.60
61484;BME280;47349;55.640;37.692;2023-04-01T18:20:18;98506.22;;;6.14;97.76
61484;BME280;47349;55.640;37.692;2023-04-01T18:23:26;98495.59;;;6.06;98.16
61484;BME280;47349;55.640;37.692;2023-04-01T18:26:31;98470.75;;;5.91;98.33
61484;BME280;47349;55.640;37.692;2023-04-01T18:29:36;98502.34;;;6.17;98.18
61484;BME280;47349;55.640;37.692;2023-04-01T18:35:17;98518.34;;;6.09;99.29
61484;BME280;47349;55.640;37.692;2023-04-01T18:38:13;98504.66;;;5.89;98.84
61484;BME280;47349;55.640;37.692;2023-04-01T18:41:28;98528.16;;;6.08;99.08
61484;BME280;47349;55.640;37.692;2023-04-01T19:26:40;98514.81;;;5.85;100.00
61484;BME280;47349;55.640;37.692;2023-04-01T19:32:33;98533.91;;;5.97;100.00
61484;BME280;47349;55.640;37.692;2023-04-01T19:35:42;98563.44;;;6.02;100.00
61484;BME280;47349;55.640;37.692;2023-04-01T19:41:54;98533.59;;;5.92;100.00
61484;BME280;47349;55.640;37.692;2023-04-01T19:44:48;98553.16;;;5.99;100.00
61484;BME280;47349;55.640;37.692;2023-04-01T20:03:58;98572.72;;;6.14;100.00
61484;BME280;47349;55.640;37.692;2023-04-01T20:18:24;98539.22;;;5.97;100.00
61484;BME280;47349;55.640;37.692;2023-04-01T20:27:20;98543.88;;;5.87;100.00
61484;BME280;47349;55.640;37.692;2023-04-01T20:32:45;98577.19;;;6.14;100.00
61484;BME280;47349;55.640;37.692;2023-04-01T20:51:59;98555.47;;;6.02;100.00
61484;BME280;47349;55.640;37.692;2023-04-01T21:09:48;98566.41;;;6.07;100.00
61484;BME280;47349;55.640;37.692;2023-04-01T21:21:54;98569.47;;;5.96;100.00
61484;BME280;47349;55.640;37.692;2023-04-01T21:26:40;98558.97;;;6.03;100.00
61484;BME280;47349;55.640;37.692;2023-04-01T21:34:48;98599.63;;;6.20;100.00
61484;BME280;47349;55.640;37.692;2023-04-01T21:44:08;98609.59;;;6.17;100.00
61484;BME280;47349;55.640;37.692;2023-04-01T21:51:38;98617.75;;;6.16;100.00
61484;BME280;47349;55.640;37.692;2023-04-01T21:59:56;98628.56;;;6.14;100.00
61484;BME280;47349;55.640;37.692;2023-04-01T22:05:54;98626.53;;;6.25;100.00
61484;BME280;47349;55.640;37.692;2023-04-01T22:11:55;98579.41;;;6.02;100.00
61484;BME280;47349;55.640;37.692;2023-04-01T22:14:47;98615.09;;;6.16;100.00
61484;BME280;47349;55.640;37.692;2023-04-01T22:23:17;98618.84;;;6.30;100.00
61484;BME280;47349;55.640;37.692;2023-04-01T22:26:01;98617.03;;;6.30;100.00
61484;BME280;47349;55.640;37.692;2023-04-01T22:28:56;98621.53;;;6.22;100.00
61484;BME280;47349;55.640;37.692;2023-04-01T22:31:50;98594.88;;;5.99;100.00
61484;BME280;47349;55.640;37.692;2023-04-01T22:37:09;98623.59;;;6.11;100.00
61484;BME280;47349;55.640;37.692;2023-04-01T22:39:54;98634.56;;;6.08;100.00
61484;BME280;47349;55.640;37.692;2023-04-01T22:42:39;98621.78;;;6.04;100.00
61484;BME280;47349;55.640;37.692;2023-04-01T22:47:57;98629.94;;;6.10;100.00
61484;BME280;47349;55.640;37.692;2023-04-01T22:51:01;98618.16;;;5.97;100.00
61484;BME280;47349;55.640;37.692;2023-04-01T22:53:52;98594.44;;;5.79;100.00
61484;BME280;47349;55.640;37.692;2023-04-01T22:56:52;98610.03;;;5.90;100.00
61484;BME280;47349;55.640;37.692;2023-04-01T22:59:35;98634.41;;;6.10;100.00
61484;BME280;47349;55.640;37.692;2023-04-01T23:02:16;98608.06;;;5.92;100.00
61484;BME280;47349;55.640;37.692;2023-04-01T23:04:54;98616.31;;;6.05;100.00
61484;BME280;47349;55.640;37.692;2023-04-01T23:10:41;98645.88;;;6.10;100.00
61484;BME280;47349;55.640;37.692;2023-04-01T23:13:19;98611.38;;;5.86;100.00
61484;BME280;47349;55.640;37.692;2023-04-01T23:15:51;98629.97;;;5.94;100.00
61484;BME280;47349;55.640;37.692;2023-04-01T23:21:20;98583.66;;;5.72;100.00
61484;BME280;47349;55.640;37.692;2023-04-01T23:24:19;98630.97;;;6.01;100.00
61484;BME280;47349;55.640;37.692;2023-04-01T23:26:56;98637.44;;;5.99;100.00
61484;BME280;47349;55.640;37.692;2023-04-01T23:29:29;98634.66;;;5.92;100.00
61484;BME280;47349;55.640;37.692;2023-04-01T23:32:03;98604.09;;;5.72;100.00
61484;BME280;47349;55.640;37.692;2023-04-01T23:34:35;98609.06;;;5.75;100.00
61484;BME280;47349;55.640;37.692;2023-04-01T23:37:07;98650.41;;;5.93;100.00
61484;BME280;47349;55.640;37.692;2023-04-01T23:39:44;98618.38;;;5.79;100.00
61484;BME280;47349;55.640;37.692;2023-04-01T23:42:31;98621.84;;;5.79;100.00
61484;BME280;47349;55.640;37.692;2023-04-01T23:45:13;98635.97;;;5.96;100.00
61484;BME280;47349;55.640;37.692;2023-04-01T23:47:45;98606.38;;;5.83;100.00
61484;BME280;47349;55.640;37.692;2023-04-01T23:50:23;98626.94;;;6.05;100.00
61484;BME280;47349;55.640;37.692;2023-04-01T23:53:04;98616.34;;;5.89;100.00
61484;BME280;47349;55.640;37.692;2023-04-01T23:55:41;98627.94;;;6.04;100.00
61484;BME280;47349;55.640;37.692;2023-04-01T23:58:18;98609.06;;;5.83;100.00
